sensor_id;sensor_type;location;lat;lon;timestamp;P1;durP1;ratioP1;P2;durP2;ratioP2
12314;SDS011;23886;46.614;14.276;2022-12-18T00:01:32;50.90;;;33.73;;
12314;SDS011;23886;46.614;14.276;2022-12-18T00:04:01;42.70;;;29.80;;
12314;SDS011;23886;46.614;14.276;2022-12-18T00:06:33;63.50;;;35.60;;
12314;SDS011;23886;46.614;14.276;2022-12-18T00:09:02;50.00;;;32.67;;
12314;SDS011;23886;46.614;14.276;2022-12-18T00:11:30;53.43;;;33.57;;
12314;SDS011;23886;46.614;14.276;2022-12-18T00:13:58;58.60;;;34.80;;
12314;SDS011;23886;46.614;14.276;2022-12-18T00:16:27;51.27;;;33.60;;
12314;SDS011;23886;46.614;14.276;2022-12-18T00:18:58;62.60;;;36.70;;
12314;SDS011;23886;46.614;14.276;2022-12-18T00:21:26;52.37;;;35.27;;
12314;SDS011;23886;46.614;14.276;2022-12-18T00:23:57;56.93;;;35.30;;
12314;SDS011;23886;46.614;14.276;2022-12-18T00:26:25;55.50;;;34.70;;
12314;SDS011;23886;46.614;14.276;2022-12-18T00:28:54;56.23;;;35.63;;
12314;SDS011;23886;46.614;14.276;2022-12-18T00:31:24;58.67;;;36.73;;
12314;SDS011;23886;46.614;14.276;2022-12-18T00:33:53;55.47;;;36.87;;
12314;SDS011;23886;46.614;14.276;2022-12-18T00:36:22;76.37;;;40.77;;
12314;SDS011;23886;46.614;14.276;2022-12-18T00:38:50;64.90;;;36.60;;
12314;SDS011;23886;46.614;14.276;2022-12-18T00:41:19;44.07;;;30.87;;
12314;SDS011;23886;46.614;14.276;2022-12-18T00:44:00;57.43;;;32.33;;
12314;SDS011;23886;46.614;14.276;2022-12-18T00:46:28;65.97;;;33.07;;
12314;SDS011;23886;46.614;14.276;2022-12-18T00:48:55;61.93;;;33.37;;
12314;SDS011;23886;46.614;14.276;2022-12-18T00:51:22;70.10;;;35.57;;
12314;SDS011;23886;46.614;14.276;2022-12-18T00:53:49;58.13;;;33.70;;
12314;SDS011;23886;46.614;14.276;2022-12-18T00:56:16;46.27;;;31.23;;
12314;SDS011;23886;46.614;14.276;2022-12-18T00:58:50;49.10;;;32.80;;
12314;SDS011;23886;46.614;14.276;2022-12-18T01:01:17;54.00;;;32.93;;
12314;SDS011;23886;46.614;14.276;2022-12-18T01:03:46;69.87;;;34.60;;
12314;SDS011;23886;46.614;14.276;2022-12-18T01:06:13;94.10;;;35.93;;
12314;SDS011;23886;46.614;14.276;2022-12-18T01:08:41;86.80;;;35.13;;
12314;SDS011;23886;46.614;14.276;2022-12-18T01:11:08;61.43;;;32.07;;
12314;SDS011;23886;46.614;14.276;2022-12-18T01:13:36;59.27;;;28.97;;
12314;SDS011;23886;46.614;14.276;2022-12-18T01:16:04;53.23;;;29.07;;
12314;SDS011;23886;46.614;14.276;2022-12-18T01:18:31;65.03;;;33.07;;
12314;SDS011;23886;46.614;14.276;2022-12-18T01:21:00;73.63;;;34.10;;
12314;SDS011;23886;46.614;14.276;2022-12-18T01:23:31;40.13;;;29.33;;
12314;SDS011;23886;46.614;14.276;2022-12-18T01:25:58;40.77;;;27.80;;
12314;SDS011;23886;46.614;14.276;2022-12-18T01:28:30;41.90;;;30.10;;
12314;SDS011;23886;46.614;14.276;2022-12-18T01:31:02;47.87;;;31.10;;
12314;SDS011;23886;46.614;14.276;2022-12-18T01:33:36;48.23;;;29.87;;
12314;SDS011;23886;46.614;14.276;2022-12-18T01:36:05;59.90;;;29.97;;
12314;SDS011;23886;46.614;14.276;2022-12-18T01:38:32;46.77;;;27.77;;
12314;SDS011;23886;46.614;14.276;2022-12-18T01:40:59;37.37;;;27.10;;
12314;SDS011;23886;46.614;14.276;2022-12-18T01:43:43;51.00;;;30.87;;
12314;SDS011;23886;46.614;14.276;2022-12-18T01:46:16;44.47;;;29.33;;
12314;SDS011;23886;46.614;14.276;2022-12-18T01:48:44;42.17;;;28.83;;
12314;SDS011;23886;46.614;14.276;2022-12-18T01:51:14;47.03;;;32.00;;
12314;SDS011;23886;46.614;14.276;2022-12-18T01:53:42;43.50;;;29.60;;
12314;SDS011;23886;46.614;14.276;2022-12-18T01:56:12;41.40;;;28.33;;
12314;SDS011;23886;46.614;14.276;2022-12-18T01:58:43;42.27;;;28.00;;
12314;SDS011;23886;46.614;14.276;2022-12-18T02:01:17;37.23;;;27.20;;
12314;SDS011;23886;46.614;14.276;2022-12-18T02:03:45;42.93;;;29.23;;
12314;SDS011;23886;46.614;14.276;2022-12-18T02:06:15;37.97;;;28.13;;
12314;SDS011;23886;46.614;14.276;2022-12-18T02:08:48;38.93;;;28.00;;
12314;SDS011;23886;46.614;14.276;2022-12-18T02:11:24;40.17;;;28.67;;
12314;SDS011;23886;46.614;14.276;2022-12-18T02:14:07;40.57;;;26.47;;
12314;SDS011;23886;46.614;14.276;2022-12-18T02:16:42;40.77;;;27.60;;
12314;SDS011;23886;46.614;14.276;2022-12-18T02:19:15;45.67;;;28.93;;
12314;SDS011;23886;46.614;14.276;2022-12-18T02:22:04;38.27;;;27.63;;
12314;SDS011;23886;46.614;14.276;2022-12-18T02:24:42;38.90;;;27.67;;
12314;SDS011;23886;46.614;14.276;2022-12-18T02:27:21;39.13;;;27.70;;
12314;SDS011;23886;46.614;14.276;2022-12-18T02:29:50;37.10;;;26.53;;
12314;SDS011;23886;46.614;14.276;2022-12-18T02:32:20;37.83;;;26.20;;
12314;SDS011;23886;46.614;14.276;2022-12-18T02:34:51;38.17;;;26.30;;
12314;SDS011;23886;46.614;14.276;2022-12-18T02:37:21;48.53;;;32.30;;
12314;SDS011;23886;46.614;14.276;2022-12-18T02:39:51;40.73;;;28.47;;
12314;SDS011;23886;46.614;14.276;2022-12-18T02:42:22;32.33;;;23.77;;
12314;SDS011;23886;46.614;14.276;2022-12-18T02:44:51;39.00;;;24.43;;
12314;SDS011;23886;46.614;14.276;2022-12-18T02:47:21;35.33;;;23.87;;
12314;SDS011;23886;46.614;14.276;2022-12-18T02:49:53;35.63;;;23.63;;
12314;SDS011;23886;46.614;14.276;2022-12-18T02:52:30;31.70;;;23.23;;
12314;SDS011;23886;46.614;14.276;2022-12-18T02:55:05;35.20;;;23.87;;
12314;SDS011;23886;46.614;14.276;2022-12-18T02:57:45;36.80;;;25.33;;
12314;SDS011;23886;46.614;14.276;2022-12-18T03:00:16;31.60;;;22.80;;
12314;SDS011;23886;46.614;14.276;2022-12-18T03:02:47;33.20;;;23.13;;
12314;SDS011;23886;46.614;14.276;2022-12-18T03:05:19;29.77;;;23.40;;
12314;SDS011;23886;46.614;14.276;2022-12-18T03:07:51;28.80;;;22.00;;
12314;SDS011;23886;46.614;14.276;2022-12-18T03:10:25;33.60;;;23.67;;
12314;SDS011;23886;46.614;14.276;2022-12-18T03:12:56;32.37;;;22.93;;
12314;SDS011;23886;46.614;14.276;2022-12-18T03:15:28;36.23;;;25.03;;
12314;SDS011;23886;46.614;14.276;2022-12-18T03:17:59;32.17;;;23.73;;
12314;SDS011;23886;46.614;14.276;2022-12-18T03:20:31;29.53;;;23.13;;
12314;SDS011;23886;46.614;14.276;2022-12-18T03:23:02;29.17;;;22.37;;
12314;SDS011;23886;46.614;14.276;2022-12-18T03:25:33;30.90;;;23.23;;
12314;SDS011;23886;46.614;14.276;2022-12-18T03:28:05;33.63;;;23.30;;
12314;SDS011;23886;46.614;14.276;2022-12-18T03:30:37;27.77;;;22.67;;
12314;SDS011;23886;46.614;14.276;2022-12-18T03:33:07;28.87;;;22.57;;
12314;SDS011;23886;46.614;14.276;2022-12-18T03:35:40;28.53;;;22.23;;
12314;SDS011;23886;46.614;14.276;2022-12-18T03:38:09;29.10;;;22.77;;
12314;SDS011;23886;46.614;14.276;2022-12-18T03:40:39;28.20;;;21.33;;
12314;SDS011;23886;46.614;14.276;2022-12-18T03:43:14;28.57;;;22.93;;
12314;SDS011;23886;46.614;14.276;2022-12-18T03:45:47;30.80;;;22.57;;
12314;SDS011;23886;46.614;14.276;2022-12-18T03:48:18;28.90;;;22.70;;
12314;SDS011;23886;46.614;14.276;2022-12-18T03:50:53;28.90;;;22.93;;
12314;SDS011;23886;46.614;14.276;2022-12-18T03:53:25;27.53;;;21.73;;
12314;SDS011;23886;46.614;14.276;2022-12-18T03:55:59;24.10;;;19.63;;
12314;SDS011;23886;46.614;14.276;2022-12-18T03:58:29;26.30;;;21.83;;
12314;SDS011;23886;46.614;14.276;2022-12-18T04:01:00;28.57;;;22.50;;
12314;SDS011;23886;46.614;14.276;2022-12-18T04:03:34;27.60;;;22.20;;
12314;SDS011;23886;46.614;14.276;2022-12-18T04:06:03;28.37;;;21.77;;
12314;SDS011;23886;46.614;14.276;2022-12-18T04:08:31;25.87;;;21.43;;
12314;SDS011;23886;46.614;14.276;2022-12-18T04:11:00;25.10;;;20.37;;
12314;SDS011;23886;46.614;14.276;2022-12-18T04:13:28;25.33;;;20.20;;
12314;SDS011;23886;46.614;14.276;2022-12-18T04:15:59;23.77;;;19.87;;
12314;SDS011;23886;46.614;14.276;2022-12-18T04:18:26;24.70;;;20.10;;
12314;SDS011;23886;46.614;14.276;2022-12-18T04:20:53;21.47;;;19.07;;
12314;SDS011;23886;46.614;14.276;2022-12-18T04:23:20;22.50;;;18.73;;
12314;SDS011;23886;46.614;14.276;2022-12-18T04:25:47;22.83;;;19.20;;
12314;SDS011;23886;46.614;14.276;2022-12-18T04:28:14;24.87;;;20.27;;
12314;SDS011;23886;46.614;14.276;2022-12-18T04:30:42;24.80;;;19.87;;
12314;SDS011;23886;46.614;14.276;2022-12-18T04:33:09;25.57;;;20.03;;
12314;SDS011;23886;46.614;14.276;2022-12-18T04:35:38;23.13;;;19.60;;
12314;SDS011;23886;46.614;14.276;2022-12-18T04:38:05;24.20;;;20.40;;
12314;SDS011;23886;46.614;14.276;2022-12-18T04:40:34;23.33;;;19.47;;
12314;SDS011;23886;46.614;14.276;2022-12-18T04:43:01;37.60;;;28.57;;
12314;SDS011;23886;46.614;14.276;2022-12-18T04:45:28;27.10;;;21.60;;
12314;SDS011;23886;46.614;14.276;2022-12-18T04:47:58;23.57;;;19.33;;
12314;SDS011;23886;46.614;14.276;2022-12-18T04:50:25;51.67;;;34.20;;
12314;SDS011;23886;46.614;14.276;2022-12-18T04:52:52;54.07;;;35.50;;
12314;SDS011;23886;46.614;14.276;2022-12-18T04:55:19;49.37;;;33.67;;
12314;SDS011;23886;46.614;14.276;2022-12-18T04:57:49;43.87;;;30.17;;
12314;SDS011;23886;46.614;14.276;2022-12-18T05:00:16;35.07;;;26.17;;
12314;SDS011;23886;46.614;14.276;2022-12-18T05:02:43;40.57;;;28.33;;
12314;SDS011;23886;46.614;14.276;2022-12-18T05:05:12;34.23;;;25.43;;
12314;SDS011;23886;46.614;14.276;2022-12-18T05:07:39;27.63;;;22.50;;
12314;SDS011;23886;46.614;14.276;2022-12-18T05:10:06;24.87;;;21.67;;
12314;SDS011;23886;46.614;14.276;2022-12-18T05:12:33;37.83;;;32.47;;
12314;SDS011;23886;46.614;14.276;2022-12-18T05:15:21;30.60;;;25.13;;
12314;SDS011;23886;46.614;14.276;2022-12-18T05:17:48;28.07;;;23.30;;
12314;SDS011;23886;46.614;14.276;2022-12-18T05:20:16;25.47;;;21.27;;
12314;SDS011;23886;46.614;14.276;2022-12-18T05:22:44;24.47;;;20.80;;
12314;SDS011;23886;46.614;14.276;2022-12-18T05:25:10;25.77;;;20.87;;
12314;SDS011;23886;46.614;14.276;2022-12-18T05:27:37;25.13;;;20.47;;
12314;SDS011;23886;46.614;14.276;2022-12-18T05:30:05;25.57;;;21.10;;
12314;SDS011;23886;46.614;14.276;2022-12-18T05:32:33;24.33;;;20.20;;
12314;SDS011;23886;46.614;14.276;2022-12-18T05:35:00;24.83;;;19.37;;
12314;SDS011;23886;46.614;14.276;2022-12-18T05:37:28;22.70;;;19.13;;
12314;SDS011;23886;46.614;14.276;2022-12-18T05:39:55;23.37;;;19.60;;
12314;SDS011;23886;46.614;14.276;2022-12-18T05:42:22;24.10;;;19.87;;
12314;SDS011;23886;46.614;14.276;2022-12-18T05:44:49;24.27;;;20.13;;
12314;SDS011;23886;46.614;14.276;2022-12-18T05:47:16;20.70;;;18.47;;
12314;SDS011;23886;46.614;14.276;2022-12-18T05:49:43;22.53;;;19.37;;
12314;SDS011;23886;46.614;14.276;2022-12-18T05:52:10;23.53;;;20.87;;
12314;SDS011;23886;46.614;14.276;2022-12-18T05:54:39;23.77;;;20.60;;
12314;SDS011;23886;46.614;14.276;2022-12-18T05:57:06;21.83;;;19.57;;
12314;SDS011;23886;46.614;14.276;2022-12-18T05:59:33;23.67;;;20.53;;
12314;SDS011;23886;46.614;14.276;2022-12-18T06:02:00;23.83;;;20.77;;
12314;SDS011;23886;46.614;14.276;2022-12-18T06:04:27;25.80;;;21.53;;
12314;SDS011;23886;46.614;14.276;2022-12-18T06:06:56;22.90;;;19.20;;
12314;SDS011;23886;46.614;14.276;2022-12-18T06:09:24;23.70;;;20.23;;
12314;SDS011;23886;46.614;14.276;2022-12-18T06:11:52;23.23;;;20.30;;
12314;SDS011;23886;46.614;14.276;2022-12-18T06:14:19;21.33;;;19.03;;
12314;SDS011;23886;46.614;14.276;2022-12-18T06:16:46;22.43;;;19.10;;
12314;SDS011;23886;46.614;14.276;2022-12-18T06:19:14;21.97;;;19.33;;
12314;SDS011;23886;46.614;14.276;2022-12-18T06:21:42;21.80;;;19.17;;
12314;SDS011;23886;46.614;14.276;2022-12-18T06:24:09;22.00;;;19.43;;
12314;SDS011;23886;46.614;14.276;2022-12-18T06:26:36;21.33;;;18.97;;
12314;SDS011;23886;46.614;14.276;2022-12-18T06:29:05;20.57;;;17.77;;
12314;SDS011;23886;46.614;14.276;2022-12-18T06:31:32;22.97;;;19.57;;
12314;SDS011;23886;46.614;14.276;2022-12-18T06:34:01;24.53;;;20.77;;
12314;SDS011;23886;46.614;14.276;2022-12-18T06:36:29;23.00;;;20.60;;
12314;SDS011;23886;46.614;14.276;2022-12-18T06:38:57;24.07;;;20.90;;
12314;SDS011;23886;46.614;14.276;2022-12-18T06:41:24;23.17;;;19.50;;
12314;SDS011;23886;46.614;14.276;2022-12-18T06:43:51;22.13;;;19.33;;
12314;SDS011;23886;46.614;14.276;2022-12-18T06:46:19;22.13;;;18.63;;
12314;SDS011;23886;46.614;14.276;2022-12-18T06:48:47;21.67;;;19.10;;
12314;SDS011;23886;46.614;14.276;2022-12-18T06:51:15;22.33;;;19.07;;
12314;SDS011;23886;46.614;14.276;2022-12-18T06:53:43;23.67;;;19.50;;
12314;SDS011;23886;46.614;14.276;2022-12-18T06:56:10;20.53;;;18.33;;
12314;SDS011;23886;46.614;14.276;2022-12-18T06:58:37;23.53;;;19.10;;
12314;SDS011;23886;46.614;14.276;2022-12-18T07:01:05;20.47;;;18.20;;
12314;SDS011;23886;46.614;14.276;2022-12-18T07:03:35;21.83;;;19.30;;
12314;SDS011;23886;46.614;14.276;2022-12-18T07:06:02;21.13;;;18.87;;
12314;SDS011;23886;46.614;14.276;2022-12-18T07:08:29;22.30;;;19.67;;
12314;SDS011;23886;46.614;14.276;2022-12-18T07:10:57;20.73;;;18.53;;
12314;SDS011;23886;46.614;14.276;2022-12-18T07:13:24;20.07;;;17.47;;
12314;SDS011;23886;46.614;14.276;2022-12-18T07:15:51;22.63;;;19.07;;
12314;SDS011;23886;46.614;14.276;2022-12-18T07:18:18;20.57;;;18.37;;
12314;SDS011;23886;46.614;14.276;2022-12-18T07:20:47;21.83;;;18.67;;
12314;SDS011;23886;46.614;14.276;2022-12-18T07:23:14;21.57;;;18.80;;
12314;SDS011;23886;46.614;14.276;2022-12-18T07:25:41;20.60;;;18.40;;
12314;SDS011;23886;46.614;14.276;2022-12-18T07:28:08;25.10;;;22.73;;
12314;SDS011;23886;46.614;14.276;2022-12-18T07:30:36;23.20;;;20.77;;
12314;SDS011;23886;46.614;14.276;2022-12-18T07:33:03;21.73;;;19.33;;
12314;SDS011;23886;46.614;14.276;2022-12-18T07:35:32;21.07;;;18.83;;
12314;SDS011;23886;46.614;14.276;2022-12-18T07:38:02;20.80;;;18.33;;
12314;SDS011;23886;46.614;14.276;2022-12-18T07:40:30;21.07;;;18.67;;
12314;SDS011;23886;46.614;14.276;2022-12-18T07:42:57;20.67;;;18.30;;
12314;SDS011;23886;46.614;14.276;2022-12-18T07:45:24;23.40;;;19.50;;
12314;SDS011;23886;46.614;14.276;2022-12-18T07:47:50;25.57;;;20.87;;
12314;SDS011;23886;46.614;14.276;2022-12-18T07:50:17;25.47;;;21.73;;
12314;SDS011;23886;46.614;14.276;2022-12-18T07:52:45;28.50;;;23.93;;
12314;SDS011;23886;46.614;14.276;2022-12-18T07:55:13;22.50;;;20.10;;
12314;SDS011;23886;46.614;14.276;2022-12-18T07:57:40;20.20;;;17.97;;
12314;SDS011;23886;46.614;14.276;2022-12-18T08:00:07;18.97;;;16.73;;
12314;SDS011;23886;46.614;14.276;2022-12-18T08:02:35;20.53;;;17.20;;
12314;SDS011;23886;46.614;14.276;2022-12-18T08:05:02;19.07;;;17.00;;
12314;SDS011;23886;46.614;14.276;2022-12-18T08:07:29;19.00;;;16.97;;
12314;SDS011;23886;46.614;14.276;2022-12-18T08:09:56;20.93;;;18.73;;
12314;SDS011;23886;46.614;14.276;2022-12-18T08:12:25;24.10;;;20.10;;
12314;SDS011;23886;46.614;14.276;2022-12-18T08:14:52;22.37;;;19.53;;
12314;SDS011;23886;46.614;14.276;2022-12-18T08:17:19;19.67;;;17.53;;
12314;SDS011;23886;46.614;14.276;2022-12-18T08:19:45;18.70;;;16.77;;
12314;SDS011;23886;46.614;14.276;2022-12-18T08:22:12;20.13;;;17.93;;
12314;SDS011;23886;46.614;14.276;2022-12-18T08:24:39;22.40;;;19.67;;
12314;SDS011;23886;46.614;14.276;2022-12-18T08:27:06;24.57;;;21.10;;
12314;SDS011;23886;46.614;14.276;2022-12-18T08:29:35;24.20;;;20.73;;
12314;SDS011;23886;46.614;14.276;2022-12-18T08:32:02;20.00;;;17.90;;
12314;SDS011;23886;46.614;14.276;2022-12-18T08:34:29;20.40;;;18.10;;
12314;SDS011;23886;46.614;14.276;2022-12-18T08:36:56;19.73;;;17.60;;
12314;SDS011;23886;46.614;14.276;2022-12-18T08:39:23;18.07;;;16.17;;
12314;SDS011;23886;46.614;14.276;2022-12-18T08:41:50;17.40;;;15.50;;
12314;SDS011;23886;46.614;14.276;2022-12-18T08:44:31;18.17;;;15.87;;
12314;SDS011;23886;46.614;14.276;2022-12-18T08:47:05;17.30;;;15.50;;
12314;SDS011;23886;46.614;14.276;2022-12-18T08:49:33;17.40;;;15.50;;
12314;SDS011;23886;46.614;14.276;2022-12-18T08:52:00;22.37;;;19.13;;
12314;SDS011;23886;46.614;14.276;2022-12-18T08:54:28;19.60;;;15.80;;
12314;SDS011;23886;46.614;14.276;2022-12-18T08:56:55;19.73;;;16.70;;
12314;SDS011;23886;46.614;14.276;2022-12-18T08:59:22;20.07;;;16.60;;
12314;SDS011;23886;46.614;14.276;2022-12-18T09:01:49;16.93;;;15.13;;
12314;SDS011;23886;46.614;14.276;2022-12-18T09:04:18;23.87;;;21.17;;
12314;SDS011;23886;46.614;14.276;2022-12-18T09:06:45;17.23;;;15.23;;
12314;SDS011;23886;46.614;14.276;2022-12-18T09:09:12;17.73;;;15.50;;
12314;SDS011;23886;46.614;14.276;2022-12-18T09:11:39;17.53;;;15.73;;
12314;SDS011;23886;46.614;14.276;2022-12-18T09:14:06;22.80;;;20.40;;
12314;SDS011;23886;46.614;14.276;2022-12-18T09:16:32;18.83;;;16.83;;
12314;SDS011;23886;46.614;14.276;2022-12-18T09:19:01;21.73;;;19.47;;
12314;SDS011;23886;46.614;14.276;2022-12-18T09:21:31;19.63;;;17.63;;
12314;SDS011;23886;46.614;14.276;2022-12-18T09:23:59;19.57;;;17.47;;
12314;SDS011;23886;46.614;14.276;2022-12-18T09:26:26;19.67;;;17.57;;
12314;SDS011;23886;46.614;14.276;2022-12-18T09:28:53;19.37;;;17.30;;
12314;SDS011;23886;46.614;14.276;2022-12-18T09:31:22;16.93;;;15.03;;
12314;SDS011;23886;46.614;14.276;2022-12-18T09:33:50;17.07;;;15.27;;
12314;SDS011;23886;46.614;14.276;2022-12-18T09:36:17;17.60;;;15.47;;
12314;SDS011;23886;46.614;14.276;2022-12-18T09:38:46;17.17;;;15.37;;
12314;SDS011;23886;46.614;14.276;2022-12-18T09:41:19;15.97;;;14.03;;
12314;SDS011;23886;46.614;14.276;2022-12-18T09:43:55;16.20;;;14.57;;
12314;SDS011;23886;46.614;14.276;2022-12-18T09:46:26;15.53;;;13.33;;
12314;SDS011;23886;46.614;14.276;2022-12-18T09:48:58;16.27;;;14.47;;
12314;SDS011;23886;46.614;14.276;2022-12-18T09:51:27;15.60;;;14.00;;
12314;SDS011;23886;46.614;14.276;2022-12-18T09:54:01;17.07;;;14.37;;
12314;SDS011;23886;46.614;14.276;2022-12-18T09:56:31;16.03;;;14.43;;
12314;SDS011;23886;46.614;14.276;2022-12-18T09:59:03;15.47;;;13.73;;
12314;SDS011;23886;46.614;14.276;2022-12-18T10:01:31;17.43;;;15.37;;
12314;SDS011;23886;46.614;14.276;2022-12-18T10:03:59;18.80;;;16.80;;
12314;SDS011;23886;46.614;14.276;2022-12-18T10:06:27;18.17;;;16.27;;
12314;SDS011;23886;46.614;14.276;2022-12-18T10:09:06;18.97;;;16.30;;
12314;SDS011;23886;46.614;14.276;2022-12-18T10:11:43;18.83;;;16.77;;
12314;SDS011;23886;46.614;14.276;2022-12-18T10:14:21;18.10;;;16.00;;
12314;SDS011;23886;46.614;14.276;2022-12-18T10:16:56;17.87;;;16.07;;
12314;SDS011;23886;46.614;14.276;2022-12-18T10:19:34;17.50;;;15.63;;
12314;SDS011;23886;46.614;14.276;2022-12-18T10:22:10;18.10;;;16.27;;
12314;SDS011;23886;46.614;14.276;2022-12-18T10:24:48;21.43;;;18.87;;
12314;SDS011;23886;46.614;14.276;2022-12-18T10:27:22;18.40;;;16.40;;
12314;SDS011;23886;46.614;14.276;2022-12-18T10:29:51;20.50;;;18.40;;
12314;SDS011;23886;46.614;14.276;2022-12-18T10:32:19;16.53;;;14.83;;
12314;SDS011;23886;46.614;14.276;2022-12-18T10:34:47;18.33;;;16.43;;
12314;SDS011;23886;46.614;14.276;2022-12-18T10:37:16;18.50;;;16.60;;
12314;SDS011;23886;46.614;14.276;2022-12-18T10:39:44;17.03;;;15.23;;
12314;SDS011;23886;46.614;14.276;2022-12-18T10:42:30;17.60;;;15.80;;
12314;SDS011;23886;46.614;14.276;2022-12-18T10:45:00;17.17;;;15.20;;
12314;SDS011;23886;46.614;14.276;2022-12-18T10:47:29;18.27;;;16.40;;
12314;SDS011;23886;46.614;14.276;2022-12-18T10:49:56;16.53;;;14.73;;
12314;SDS011;23886;46.614;14.276;2022-12-18T10:52:24;16.97;;;15.23;;
12314;SDS011;23886;46.614;14.276;2022-12-18T10:54:55;17.13;;;15.33;;
12314;SDS011;23886;46.614;14.276;2022-12-18T10:57:31;17.07;;;15.37;;
12314;SDS011;23886;46.614;14.276;2022-12-18T11:00:19;16.30;;;14.60;;
12314;SDS011;23886;46.614;14.276;2022-12-18T11:02:49;16.53;;;14.63;;
12314;SDS011;23886;46.614;14.276;2022-12-18T11:05:24;17.10;;;15.40;;
12314;SDS011;23886;46.614;14.276;2022-12-18T11:07:53;18.03;;;16.20;;
12314;SDS011;23886;46.614;14.276;2022-12-18T11:10:22;16.67;;;14.90;;
12314;SDS011;23886;46.614;14.276;2022-12-18T11:12:52;17.53;;;15.73;;
12314;SDS011;23886;46.614;14.276;2022-12-18T11:15:20;15.87;;;14.07;;
12314;SDS011;23886;46.614;14.276;2022-12-18T11:17:51;18.03;;;16.20;;
12314;SDS011;23886;46.614;14.276;2022-12-18T11:20:20;15.80;;;14.23;;
12314;SDS011;23886;46.614;14.276;2022-12-18T11:22:54;16.30;;;14.60;;
12314;SDS011;23886;46.614;14.276;2022-12-18T11:25:24;17.23;;;14.27;;
12314;SDS011;23886;46.614;14.276;2022-12-18T11:27:55;16.07;;;14.37;;
12314;SDS011;23886;46.614;14.276;2022-12-18T11:30:24;15.80;;;14.20;;
12314;SDS011;23886;46.614;14.276;2022-12-18T11:32:54;17.03;;;15.33;;
12314;SDS011;23886;46.614;14.276;2022-12-18T11:35:27;15.00;;;13.50;;
12314;SDS011;23886;46.614;14.276;2022-12-18T11:38:10;13.87;;;12.47;;
12314;SDS011;23886;46.614;14.276;2022-12-18T11:40:47;13.73;;;12.33;;
12314;SDS011;23886;46.614;14.276;2022-12-18T11:43:21;14.53;;;12.93;;
12314;SDS011;23886;46.614;14.276;2022-12-18T11:45:54;14.60;;;12.80;;
12314;SDS011;23886;46.614;14.276;2022-12-18T11:48:25;16.20;;;14.50;;
12314;SDS011;23886;46.614;14.276;2022-12-18T11:50:58;15.50;;;13.90;;
12314;SDS011;23886;46.614;14.276;2022-12-18T11:53:27;15.20;;;13.53;;
12314;SDS011;23886;46.614;14.276;2022-12-18T11:55:58;14.93;;;13.33;;
12314;SDS011;23886;46.614;14.276;2022-12-18T11:58:44;15.00;;;13.40;;
12314;SDS011;23886;46.614;14.276;2022-12-18T12:01:28;14.00;;;12.40;;
12314;SDS011;23886;46.614;14.276;2022-12-18T12:04:22;15.03;;;13.43;;
12314;SDS011;23886;46.614;14.276;2022-12-18T12:07:14;16.30;;;14.57;;
12314;SDS011;23886;46.614;14.276;2022-12-18T12:09:53;17.07;;;15.33;;
12314;SDS011;23886;46.614;14.276;2022-12-18T12:12:30;16.80;;;14.97;;
12314;SDS011;23886;46.614;14.276;2022-12-18T12:15:13;17.50;;;14.90;;
12314;SDS011;23886;46.614;14.276;2022-12-18T12:17:52;17.50;;;13.93;;
12314;SDS011;23886;46.614;14.276;2022-12-18T12:20:25;14.77;;;13.27;;
12314;SDS011;23886;46.614;14.276;2022-12-18T12:23:04;14.97;;;13.47;;
12314;SDS011;23886;46.614;14.276;2022-12-18T12:25:42;15.80;;;14.10;;
12314;SDS011;23886;46.614;14.276;2022-12-18T12:28:18;15.30;;;13.70;;
12314;SDS011;23886;46.614;14.276;2022-12-18T12:30:56;15.97;;;14.20;;
12314;SDS011;23886;46.614;14.276;2022-12-18T12:33:36;14.80;;;13.27;;
12314;SDS011;23886;46.614;14.276;2022-12-18T12:36:10;15.17;;;13.67;;
12314;SDS011;23886;46.614;14.276;2022-12-18T12:38:46;16.80;;;15.07;;
12314;SDS011;23886;46.614;14.276;2022-12-18T12:41:18;16.63;;;14.10;;
12314;SDS011;23886;46.614;14.276;2022-12-18T12:44:07;16.20;;;14.53;;
12314;SDS011;23886;46.614;14.276;2022-12-18T12:46:40;16.00;;;14.40;;
12314;SDS011;23886;46.614;14.276;2022-12-18T12:49:09;16.23;;;14.57;;
12314;SDS011;23886;46.614;14.276;2022-12-18T12:51:41;15.27;;;13.77;;
12314;SDS011;23886;46.614;14.276;2022-12-18T12:54:11;15.73;;;14.13;;
12314;SDS011;23886;46.614;14.276;2022-12-18T12:56:44;15.83;;;14.23;;
12314;SDS011;23886;46.614;14.276;2022-12-18T12:59:22;17.13;;;14.67;;
12314;SDS011;23886;46.614;14.276;2022-12-18T13:01:57;16.60;;;14.90;;
12314;SDS011;23886;46.614;14.276;2022-12-18T13:04:30;15.40;;;13.80;;
12314;SDS011;23886;46.614;14.276;2022-12-18T13:07:04;16.27;;;14.57;;
12314;SDS011;23886;46.614;14.276;2022-12-18T13:12:55;15.27;;;13.60;;
12314;SDS011;23886;46.614;14.276;2022-12-18T13:15:26;14.60;;;13.13;;
12314;SDS011;23886;46.614;14.276;2022-12-18T13:21:02;16.03;;;14.33;;
12314;SDS011;23886;46.614;14.276;2022-12-18T13:23:34;16.90;;;15.17;;
12314;SDS011;23886;46.614;14.276;2022-12-18T13:28:56;17.23;;;15.47;;
12314;SDS011;23886;46.614;14.276;2022-12-18T13:34:35;16.43;;;14.67;;
12314;SDS011;23886;46.614;14.276;2022-12-18T13:43:15;17.10;;;15.23;;
12314;SDS011;23886;46.614;14.276;2022-12-18T13:45:58;18.63;;;16.63;;
12314;SDS011;23886;46.614;14.276;2022-12-18T13:48:29;18.10;;;16.27;;
12314;SDS011;23886;46.614;14.276;2022-12-18T13:51:00;26.00;;;19.40;;
12314;SDS011;23886;46.614;14.276;2022-12-18T13:53:32;24.80;;;19.80;;
12314;SDS011;23886;46.614;14.276;2022-12-18T13:56:02;27.87;;;22.33;;
12314;SDS011;23886;46.614;14.276;2022-12-18T13:58:30;23.10;;;19.00;;
12314;SDS011;23886;46.614;14.276;2022-12-18T14:00:58;24.50;;;19.07;;
12314;SDS011;23886;46.614;14.276;2022-12-18T14:03:28;20.27;;;17.57;;
12314;SDS011;23886;46.614;14.276;2022-12-18T14:05:58;17.70;;;15.40;;
12314;SDS011;23886;46.614;14.276;2022-12-18T14:08:32;17.07;;;15.27;;
12314;SDS011;23886;46.614;14.276;2022-12-18T14:11:03;16.43;;;14.03;;
12314;SDS011;23886;46.614;14.276;2022-12-18T14:13:32;15.53;;;13.83;;
12314;SDS011;23886;46.614;14.276;2022-12-18T14:16:03;14.63;;;13.13;;
12314;SDS011;23886;46.614;14.276;2022-12-18T14:18:34;14.90;;;13.40;;
12314;SDS011;23886;46.614;14.276;2022-12-18T14:21:13;15.57;;;13.90;;
12314;SDS011;23886;46.614;14.276;2022-12-18T14:23:45;17.20;;;14.80;;
12314;SDS011;23886;46.614;14.276;2022-12-18T14:26:20;16.13;;;14.53;;
12314;SDS011;23886;46.614;14.276;2022-12-18T14:28:49;15.60;;;14.00;;
12314;SDS011;23886;46.614;14.276;2022-12-18T14:31:19;17.27;;;15.17;;
12314;SDS011;23886;46.614;14.276;2022-12-18T14:33:48;14.83;;;13.17;;
12314;SDS011;23886;46.614;14.276;2022-12-18T14:36:17;15.80;;;14.23;;
12314;SDS011;23886;46.614;14.276;2022-12-18T14:38:47;16.60;;;14.73;;
12314;SDS011;23886;46.614;14.276;2022-12-18T14:41:16;16.27;;;14.43;;
12314;SDS011;23886;46.614;14.276;2022-12-18T14:43:45;18.17;;;16.37;;
12314;SDS011;23886;46.614;14.276;2022-12-18T14:46:32;19.53;;;17.40;;